Time;durP1;ratioP1;P1;durP2;ratioP2;P2;SDS_P1;SDS_P2;PMS_P1;PMS_P2;Temp;Humidity;BMP_temperature;BMP_pressure;BME280_temperature;BME280_humidity;BME280_pressure;Samples;Min_cycle;Max_cycle;Signal;HPM_P1;HPM_P2
2022/01/11 00:01:19;;;;;;;357.52;78.85;;;0.10;99.90;;;;;;5076622;28;20052;-84
2022/01/11 00:03:45;;;;;;;313.23;68.47;;;-0.40;99.90;;;;;;5090951;28;20059;-84
2022/01/11 00:08:39;;;;;;;335.23;71.70;;;-0.40;99.90;;;;;;5073632;28;20045;-84
2022/01/11 00:11:05;;;;;;;350.38;73.07;;;-0.50;99.90;;;;;;5074672;28;20123;-84
2022/01/11 00:13:36;;;;;;;361.48;72.75;;;-0.40;99.90;;;;;;5076627;28;20869;-85
2022/01/11 00:16:02;;;;;;;305.83;68.45;;;-0.40;99.90;;;;;;5074082;28;20052;-83
2022/01/11 00:18:28;;;;;;;298.63;68.93;;;-0.50;99.90;;;;;;5074420;28;20051;-85
2022/01/11 00:20:54;;;;;;;311.35;66.85;;;-0.50;99.90;;;;;;5055650;28;20060;-83
2022/01/11 00:25:51;;;;;;;292.70;67.00;;;-0.50;99.90;;;;;;5072183;28;20048;-84
2022/01/11 00:28:18;;;;;;;288.60;64.53;;;-0.50;99.90;;;;;;5075012;28;20131;-84
2022/01/11 00:30:46;;;;;;;251.70;62.20;;;-0.60;99.90;;;;;;5075001;28;20060;-83
2022/01/11 00:33:20;;;;;;;253.32;59.42;;;-0.40;99.90;;;;;;5072469;28;20056;-83
2022/01/11 00:35:56;;;;;;;252.02;58.38;;;-0.70;99.90;;;;;;5072224;28;20044;-84
2022/01/11 00:38:24;;;;;;;222.10;54.88;;;-0.70;99.90;;;;;;5071901;28;20471;-84
2022/01/11 00:40:53;;;;;;;222.50;53.47;;;-0.70;99.90;;;;;;5074294;28;20105;-84
2022/01/11 00:43:21;;;;;;;184.90;50.03;;;-0.80;99.90;;;;;;5075655;28;20044;-85
2022/01/11 00:45:48;;;;;;;183.65;52.20;;;-0.90;99.90;;;;;;5073799;28;20139;-83
2022/01/11 00:48:14;;;;;;;200.07;53.35;;;-0.60;99.90;;;;;;5073498;28;20067;-83
2022/01/11 00:50:40;;;;;;;187.90;51.97;;;-1.00;99.90;;;;;;5090033;28;20461;-84
2022/01/11 00:53:10;;;;;;;176.20;50.60;;;-1.10;99.90;;;;;;5072957;28;20044;-85
2022/01/11 00:55:37;;;;;;;159.55;48.45;;;-0.60;99.90;;;;;;5074296;28;20078;-84
2022/01/11 00:58:04;;;;;;;148.98;50.83;;;-1.20;99.90;;;;;;5072823;28;20059;-85
2022/01/11 01:00:30;;;;;;;145.00;46.85;;;-0.30;99.90;;;;;;5071595;28;20083;-84
2022/01/11 01:02:56;;;;;;;172.35;51.42;;;-1.00;99.90;;;;;;5072400;28;20046;-84
2022/01/11 01:05:22;;;;;;;160.27;39.75;;;-1.20;99.90;;;;;;5070904;28;20127;-85
2022/01/11 01:07:49;;;;;;;194.27;52.60;;;-1.10;99.90;;;;;;5073308;28;20051;-84
2022/01/11 01:10:26;;;;;;;199.32;48.17;;;-1.00;99.90;;;;;;5073364;28;20097;-84
2022/01/11 01:12:56;;;;;;;208.65;50.50;;;-1.00;99.90;;;;;;5072494;28;20087;-84
2022/01/11 01:15:22;;;;;;;199.82;48.80;;;-0.80;99.90;;;;;;5072530;28;20157;-84
2022/01/11 01:17:48;;;;;;;236.70;53.65;;;-0.80;99.90;;;;;;5072884;28;20123;-84
2022/01/11 01:20:14;;;;;;;186.25;47.92;;;-0.80;99.90;;;;;;5089580;28;20098;-84
2022/01/11 01:22:40;;;;;;;201.27;47.65;;;-0.70;99.90;;;;;;5074725;28;20040;-85
2022/01/11 01:25:06;;;;;;;233.48;51.35;;;-0.80;99.90;;;;;;5072143;28;20063;-85
2022/01/11 01:27:32;;;;;;;219.90;49.83;;;-0.70;99.90;;;;;;5057376;28;20407;-84
2022/01/11 01:29:58;;;;;;;272.33;58.38;;;-0.70;99.90;;;;;;5056021;28;20102;-84
2022/01/11 01:32:24;;;;;;;270.38;57.70;;;-0.70;99.90;;;;;;5074427;28;20048;-84
2022/01/11 01:34:55;;;;;;;296.50;60.30;;;-0.70;99.90;;;;;;5073400;28;20422;-83
2022/01/11 01:37:21;;;;;;;282.08;61.50;;;-0.70;99.90;;;;;;5073481;28;20074;-84
2022/01/11 01:39:46;;;;;;;279.00;59.05;;;-0.80;99.90;;;;;;5073616;28;20045;-83
2022/01/11 01:42:23;;;;;;;262.98;57.40;;;-0.70;99.90;;;;;;5073238;28;20108;-83
2022/01/11 01:44:48;;;;;;;281.33;62.00;;;-0.70;99.90;;;;;;5071171;28;20063;-84
2022/01/11 01:47:14;;;;;;;284.42;60.80;;;-0.70;99.90;;;;;;5072008;28;20048;-84
2022/01/11 01:49:40;;;;;;;321.00;63.25;;;-0.70;99.90;;;;;;5071123;28;20048;-84
2022/01/11 01:52:08;;;;;;;294.60;58.75;;;-0.40;99.90;;;;;;5068474;28;20040;-84
2022/01/11 01:54:34;;;;;;;277.08;59.47;;;-0.70;99.90;;;;;;5052223;28;20052;-84
2022/01/11 01:57:00;;;;;;;293.02;63.17;;;-0.80;99.90;;;;;;5068311;28;20537;-84
2022/01/11 01:59:26;;;;;;;342.90;66.88;;;-0.60;99.90;;;;;;5052912;28;20082;-85
2022/01/11 02:01:52;;;;;;;322.63;61.85;;;-0.70;99.90;;;;;;5069648;28;20455;-84
2022/01/11 02:04:19;;;;;;;322.02;65.20;;;-0.70;99.90;;;;;;5071054;28;20056;-85
2022/01/11 02:06:48;;;;;;;324.08;62.00;;;-0.70;99.90;;;;;;5070037;28;20125;-84
2022/01/11 02:09:15;;;;;;;333.95;64.80;;;-0.60;99.90;;;;;;5073090;28;20068;-84
2022/01/11 02:11:41;;;;;;;375.95;67.38;;;-0.60;99.90;;;;;;5061833;28;20574;-83
2022/01/11 02:14:08;;;;;;;372.73;68.82;;;-0.60;99.90;;;;;;5034827;28;20052;-84
2022/01/11 02:16:34;;;;;;;395.98;68.57;;;-0.60;99.90;;;;;;5034984;28;20064;-83
2022/01/11 02:19:00;;;;;;;434.42;66.88;;;-0.50;99.90;;;;;;5051156;28;20513;-84
2022/01/11 02:21:27;;;;;;;379.90;63.25;;;-0.60;99.90;;;;;;5034012;28;20049;-82
2022/01/11 02:23:54;;;;;;;479.80;76.53;;;-0.50;99.90;;;;;;5049434;28;20403;-84
2022/01/11 02:26:20;;;;;;;408.60;67.35;;;-0.50;99.90;;;;;;5050258;28;20049;-84
2022/01/11 02:28:46;;;;;;;514.72;84.63;;;-0.50;99.90;;;;;;5034926;28;20049;-84
2022/01/11 02:31:12;;;;;;;372.73;67.00;;;-0.60;99.90;;;;;;5052439;28;20458;-83
2022/01/11 02:33:49;;;;;;;409.75;69.70;;;-0.50;99.90;;;;;;5052202;28;20040;-84
2022/01/11 02:36:24;;;;;;;398.92;67.20;;;-0.50;99.90;;;;;;5051979;28;20518;-82
2022/01/11 02:38:55;;;;;;;364.27;65.75;;;-0.50;99.90;;;;;;5051753;28;20502;-83
2022/01/11 02:41:24;;;;;;;489.30;82.50;;;-0.50;99.90;;;;;;5051051;28;20049;-85
2022/01/11 02:43:50;;;;;;;504.67;83.97;;;-0.60;99.90;;;;;;5051605;28;20049;-84
2022/01/11 02:46:21;;;;;;;371.10;65.97;;;-0.50;99.90;;;;;;5053670;28;20101;-84
2022/01/11 02:48:47;;;;;;;500.45;84.55;;;-0.50;99.90;;;;;;5052619;28;20518;-84
2022/01/11 02:51:13;;;;;;;460.38;75.45;;;-0.50;99.90;;;;;;5054142;28;20051;-84
2022/01/11 02:53:43;;;;;;;392.50;70.35;;;-0.50;99.90;;;;;;5055572;28;20534;-84
2022/01/11 02:56:10;;;;;;;490.25;81.43;;;-0.60;99.90;;;;;;5056453;28;20400;-84
2022/01/11 02:58:35;;;;;;;383.85;69.60;;;-0.50;99.90;;;;;;5056794;28;20504;-82
2022/01/11 03:01:02;;;;;;;399.35;69.57;;;-0.50;99.90;;;;;;5057465;28;20053;-84
2022/01/11 03:03:27;;;;;;;382.80;71.43;;;-0.50;99.90;;;;;;5057706;28;20041;-84
2022/01/11 03:05:56;;;;;;;491.25;88.57;;;-0.50;99.90;;;;;;5055668;28;20045;-84
2022/01/11 03:08:27;;;;;;;372.38;70.97;;;-0.50;99.90;;;;;;5056134;28;20060;-83
2022/01/11 03:10:54;;;;;;;315.48;67.30;;;-0.50;99.90;;;;;;5055930;28;20053;-83
2022/01/11 03:13:21;;;;;;;360.25;73.88;;;-0.40;99.90;;;;;;5057327;28;20403;-82
2022/01/11 03:15:48;;;;;;;320.73;70.43;;;0.10;99.90;;;;;;5055926;28;20496;-84
2022/01/11 03:18:15;;;;;;;297.90;64.40;;;-0.40;99.90;;;;;;5040010;28;20059;-83
2022/01/11 03:20:43;;;;;;;302.23;68.63;;;-0.40;99.90;;;;;;5057723;28;20048;-83
2022/01/11 03:23:09;;;;;;;306.42;65.68;;;-0.30;99.90;;;;;;5058762;28;20048;-83
2022/01/11 03:25:35;;;;;;;299.95;71.40;;;-0.30;99.90;;;;;;5040945;28;20075;-83
2022/01/11 03:28:05;;;;;;;282.92;65.47;;;-0.40;99.90;;;;;;5058992;28;20068;-83
2022/01/11 03:30:31;;;;;;;280.13;63.92;;;-0.40;99.90;;;;;;5041374;28;20045;-84
2022/01/11 03:32:57;;;;;;;279.15;62.63;;;-0.40;99.90;;;;;;5060247;28;20072;-84
2022/01/11 03:35:23;;;;;;;271.88;60.97;;;-0.40;99.90;;;;;;5068277;28;20048;-83
2022/01/11 03:37:50;;;;;;;288.15;64.30;;;-0.40;99.90;;;;;;5070061;28;20049;-84
2022/01/11 03:40:18;;;;;;;269.58;61.75;;;-0.40;99.90;;;;;;5066838;28;20053;-84
2022/01/11 03:42:45;;;;;;;261.35;60.22;;;-0.50;99.90;;;;;;5055914;28;20049;-84
2022/01/11 03:45:12;;;;;;;283.23;63.50;;;-0.50;99.90;;;;;;5054920;28;20053;-83
2022/01/11 03:47:38;;;;;;;303.77;68.30;;;-0.50;99.90;;;;;;5053357;28;20049;-85
2022/01/11 03:50:05;;;;;;;262.02;62.42;;;-0.40;99.90;;;;;;5036681;28;20072;-84
2022/01/11 03:52:31;;;;;;;259.20;60.63;;;-0.50;99.90;;;;;;5054037;28;20056;-84
2022/01/11 03:57:25;;;;;;;198.80;54.78;;;-0.50;99.90;;;;;;5055621;28;20045;-85
2022/01/11 03:59:51;;;;;;;221.88;57.70;;;-0.60;99.90;;;;;;5037760;28;20053;-83
2022/01/11 04:02:18;;;;;;;215.95;53.83;;;-0.60;99.90;;;;;;5054139;28;20041;-85
2022/01/11 04:04:52;;;;;;;181.45;50.42;;;-1.10;99.90;;;;;;5056710;28;20103;-85
2022/01/11 04:07:22;;;;;;;199.90;53.05;;;-0.60;99.90;;;;;;5054827;28;20123;-83
2022/01/11 04:09:49;;;;;;;184.63;50.05;;;-0.60;99.90;;;;;;5055115;28;20049;-85
2022/01/11 04:12:16;;;;;;;187.10;51.15;;;-0.70;99.90;;;;;;5055393;28;20548;-83
2022/01/11 04:14:42;;;;;;;165.63;50.03;;;-0.70;99.90;;;;;;5039936;28;20077;-84
2022/01/11 04:17:09;;;;;;;179.98;48.22;;;-0.70;99.90;;;;;;5053261;28;20049;-83
2022/01/11 04:19:35;;;;;;;158.52;48.25;;;0.00;99.90;;;;;;5055902;28;20136;-84
2022/01/11 04:22:00;;;;;;;174.68;47.90;;;-0.80;99.90;;;;;;5038839;28;20077;-83
2022/01/11 04:24:26;;;;;;;170.13;47.42;;;-0.30;99.90;;;;;;5056558;28;20570;-84
2022/01/11 04:26:52;;;;;;;177.10;49.65;;;-0.30;99.90;;;;;;5055783;28;20103;-84
2022/01/11 04:29:18;;;;;;;173.05;48.13;;;-0.80;99.90;;;;;;5055788;28;20061;-85
2022/01/11 04:31:44;;;;;;;150.27;48.72;;;-0.90;99.90;;;;;;5054580;28;20051;-84
2022/01/11 04:34:09;;;;;;;160.20;48.10;;;-0.80;99.90;;;;;;5054589;28;20063;-84
2022/01/11 04:36:36;;;;;;;162.35;48.25;;;-0.80;99.90;;;;;;5054157;28;20040;-84
2022/01/11 04:39:05;;;;;;;172.13;50.60;;;-0.80;99.90;;;;;;5053286;28;20102;-85
2022/01/11 04:41:30;;;;;;;139.32;45.20;;;-0.90;99.90;;;;;;5052847;28;20053;-84
2022/01/11 04:43:56;;;;;;;157.68;45.83;;;-1.10;99.90;;;;;;5034985;28;20415;-85
2022/01/11 04:46:22;;;;;;;140.15;47.00;;;-0.80;99.90;;;;;;5054327;28;20055;-85
2022/01/11 04:48:48;;;;;;;157.35;45.15;;;-0.70;99.90;;;;;;5052112;28;20056;-84
2022/01/11 04:51:14;;;;;;;151.55;43.88;;;-0.80;99.90;;;;;;5035592;28;20084;-84
2022/01/11 04:53:40;;;;;;;165.85;49.22;;;-0.70;99.90;;;;;;5055210;28;20052;-84
2022/01/11 04:56:06;;;;;;;140.63;45.13;;;0.00;99.90;;;;;;5052386;28;20064;-84
2022/01/11 04:58:32;;;;;;;135.02;42.22;;;-0.60;99.90;;;;;;5036503;28;20051;-84
2022/01/11 05:00:58;;;;;;;155.65;46.30;;;-0.60;99.90;;;;;;5052724;28;20061;-83
2022/01/11 05:03:23;;;;;;;145.95;42.83;;;-0.60;99.90;;;;;;5054983;28;20407;-85
2022/01/11 05:05:49;;;;;;;99.43;33.85;;;-0.50;99.90;;;;;;5036359;28;20506;-86
2022/01/11 05:08:15;;;;;;;139.65;45.03;;;-0.50;99.90;;;;;;5051500;28;20052;-84
2022/01/11 05:10:44;;;;;;;147.90;47.65;;;-0.50;99.90;;;;;;5050250;28;20085;-84
2022/01/11 05:13:14;;;;;;;160.77;47.50;;;0.50;99.90;;;;;;5052054;28;20045;-83
2022/01/11 05:15:41;;;;;;;162.38;47.47;;;-0.50;99.90;;;;;;5050336;28;20127;-83
2022/01/11 05:18:08;;;;;;;142.98;44.67;;;-0.50;99.90;;;;;;5034372;28;20131;-83
2022/01/11 05:20:34;;;;;;;157.13;48.92;;;-0.60;99.90;;;;;;5052212;28;20056;-84
2022/01/11 05:23:00;;;;;;;136.50;42.55;;;-0.60;99.90;;;;;;5052623;28;20102;-84
2022/01/11 05:25:26;;;;;;;137.80;41.47;;;-0.60;99.90;;;;;;5051747;28;20131;-84
2022/01/11 05:27:52;;;;;;;148.02;44.03;;;-0.30;99.90;;;;;;5052851;28;20041;-82
2022/01/11 05:30:18;;;;;;;146.05;45.17;;;-0.50;99.90;;;;;;5053293;28;20411;-84
2022/01/11 05:32:44;;;;;;;150.93;49.20;;;-0.50;99.90;;;;;;5050811;28;20049;-83
2022/01/11 05:35:14;;;;;;;159.50;44.28;;;-0.50;99.90;;;;;;5050731;28;20120;-83
2022/01/11 05:37:40;;;;;;;156.82;49.13;;;-0.50;99.90;;;;;;5049098;28;20045;-84
2022/01/11 05:40:07;;;;;;;149.13;47.00;;;-0.20;99.90;;;;;;5048980;28;20045;-84
2022/01/11 05:42:33;;;;;;;122.55;40.35;;;-0.50;99.90;;;;;;5049615;28;20135;-83
2022/01/11 05:44:59;;;;;;;163.68;48.17;;;0.00;99.90;;;;;;5034933;28;20059;-84
2022/01/11 05:47:24;;;;;;;152.30;48.38;;;-0.10;99.90;;;;;;5055715;28;20120;-84
2022/01/11 05:49:50;;;;;;;160.63;46.50;;;-0.40;99.90;;;;;;5071780;28;20025;-83
2022/01/11 05:52:16;;;;;;;151.25;44.22;;;-0.50;99.90;;;;;;5071509;28;20037;-84
2022/01/11 05:54:42;;;;;;;146.25;42.13;;;-0.40;99.90;;;;;;5053455;28;20088;-81
2022/01/11 05:57:08;;;;;;;126.43;43.60;;;-0.40;99.90;;;;;;5072756;28;20059;-84
2022/01/11 05:59:33;;;;;;;152.40;47.75;;;-0.30;99.90;;;;;;5073033;28;20025;-83
2022/01/11 06:01:59;;;;;;;149.52;47.80;;;-0.30;99.90;;;;;;5072210;28;20120;-83
2022/01/11 06:04:25;;;;;;;150.48;47.58;;;-0.20;99.90;;;;;;5070639;28;20049;-84
2022/01/11 06:06:51;;;;;;;148.32;48.47;;;-0.40;99.90;;;;;;5069803;28;20077;-84
2022/01/11 06:09:17;;;;;;;160.98;49.72;;;-0.50;99.90;;;;;;5071391;28;20062;-83
2022/01/11 06:11:43;;;;;;;150.95;47.05;;;-0.50;99.90;;;;;;5065418;28;20033;-85
2022/01/11 06:14:08;;;;;;;143.45;46.63;;;-0.50;99.90;;;;;;5049115;28;20059;-86
2022/01/11 06:16:34;;;;;;;171.93;50.60;;;-0.60;99.90;;;;;;5048354;28;20053;-86
2022/01/11 06:19:00;;;;;;;176.75;50.50;;;-0.60;99.90;;;;;;5046749;28;20052;-85
2022/01/11 06:21:26;;;;;;;180.50;52.47;;;-1.30;99.90;;;;;;5047984;28;20457;-84
2022/01/11 06:23:52;;;;;;;155.70;50.78;;;-0.60;99.90;;;;;;5047043;28;20084;-85
2022/01/11 06:26:18;;;;;;;151.90;46.58;;;-0.70;99.90;;;;;;5048279;28;20106;-85
2022/01/11 06:28:43;;;;;;;147.18;47.20;;;-0.70;99.90;;;;;;5046110;28;20064;-85
2022/01/11 06:31:10;;;;;;;154.82;47.40;;;-0.30;99.90;;;;;;5030590;28;20132;-85
2022/01/11 06:33:36;;;;;;;164.43;49.42;;;-0.60;99.90;;;;;;5049395;28;20047;-85
2022/01/11 06:36:02;;;;;;;167.93;51.38;;;-0.50;99.90;;;;;;5049538;28;20120;-85
2022/01/11 06:38:28;;;;;;;179.23;52.10;;;-0.60;99.90;;;;;;5046579;28;20056;-84
2022/01/11 06:40:54;;;;;;;164.20;48.38;;;-0.50;99.90;;;;;;5047972;28;20160;-86
2022/01/11 06:43:19;;;;;;;146.50;44.63;;;-0.50;99.90;;;;;;5048254;28;20068;-86
2022/01/11 06:45:45;;;;;;;173.05;48.78;;;-0.50;99.90;;;;;;5047232;28;20096;-84
2022/01/11 06:48:11;;;;;;;169.52;47.95;;;-0.50;99.90;;;;;;5046424;28;20049;-85
2022/01/11 06:50:37;;;;;;;147.85;43.10;;;-0.40;99.90;;;;;;5047792;28;20128;-85
2022/01/11 06:53:03;;;;;;;137.80;42.38;;;-0.50;99.90;;;;;;5047821;28;20045;-85
2022/01/11 06:55:29;;;;;;;166.80;49.67;;;-0.40;99.90;;;;;;5046194;28;20075;-84
2022/01/11 06:57:54;;;;;;;170.07;51.33;;;-0.40;99.90;;;;;;5048738;28;20083;-84
2022/01/11 07:00:20;;;;;;;155.80;49.42;;;-0.40;99.90;;;;;;5048430;28;20084;-85
2022/01/11 07:02:49;;;;;;;158.57;50.70;;;-0.50;99.90;;;;;;5047791;28;20045;-84
2022/01/11 07:05:16;;;;;;;166.13;48.65;;;-0.50;99.90;;;;;;5049757;28;20049;-84
2022/01/11 07:07:42;;;;;;;160.10;45.70;;;-0.50;99.90;;;;;;5029273;28;20048;-85
2022/01/11 07:10:08;;;;;;;154.55;50.00;;;-0.50;99.90;;;;;;5048050;28;20045;-85
2022/01/11 07:12:34;;;;;;;160.13;48.67;;;-0.40;99.90;;;;;;5047032;28;20053;-84
2022/01/11 07:14:59;;;;;;;143.90;46.13;;;-0.40;99.90;;;;;;5048480;28;20132;-85
2022/01/11 07:17:25;;;;;;;172.63;47.17;;;-0.40;99.90;;;;;;5050243;28;20037;-85
2022/01/11 07:19:51;;;;;;;165.30;47.38;;;-0.40;99.90;;;;;;5050139;28;20114;-85
2022/01/11 07:22:17;;;;;;;155.25;46.47;;;-0.40;99.90;;;;;;5052226;28;20132;-86
2022/01/11 07:24:43;;;;;;;154.55;48.00;;;-0.40;99.90;;;;;;5031280;28;20140;-86
2022/01/11 07:27:09;;;;;;;157.55;48.72;;;-0.40;99.90;;;;;;5048976;28;20476;-85
2022/01/11 07:29:35;;;;;;;150.40;44.45;;;0.30;99.90;;;;;;5048606;28;20045;-85
2022/01/11 07:32:00;;;;;;;169.07;49.85;;;-0.40;99.90;;;;;;5047771;28;20068;-85
2022/01/11 07:34:26;;;;;;;151.38;49.85;;;-0.30;99.90;;;;;;5051552;28;20044;-84
2022/01/11 07:36:52;;;;;;;138.40;43.75;;;-0.30;99.90;;;;;;5051742;28;20480;-84
2022/01/11 07:39:18;;;;;;;160.35;49.40;;;0.00;99.90;;;;;;5056951;28;20044;-84
2022/01/11 07:41:44;;;;;;;160.50;49.50;;;-0.20;99.90;;;;;;5056482;28;20056;-85
2022/01/11 07:44:11;;;;;;;149.70;44.05;;;0.30;99.90;;;;;;5054234;28;20734;-86
2022/01/11 07:46:39;;;;;;;170.50;50.63;;;-0.20;99.90;;;;;;5036100;28;20056;-85
2022/01/11 07:49:06;;;;;;;134.70;41.45;;;-0.20;99.90;;;;;;5052562;28;20080;-86
2022/01/11 07:51:32;;;;;;;165.10;50.15;;;-0.10;99.90;;;;;;5051631;28;20506;-85
2022/01/11 07:53:57;;;;;;;127.38;43.25;;;-0.10;99.90;;;;;;5052257;28;20055;-85
2022/01/11 07:56:23;;;;;;;138.75;41.47;;;0.00;99.90;;;;;;5053159;28;20056;-84
2022/01/11 07:58:49;;;;;;;156.27;49.38;;;1.20;99.90;;;;;;5056570;28;20049;-86
2022/01/11 08:01:16;;;;;;;156.25;48.08;;;0.00;99.90;;;;;;5066579;28;20044;-85
2022/01/11 08:03:42;;;;;;;155.07;47.03;;;0.40;99.90;;;;;;5027367;28;20052;-86
2022/01/11 08:06:08;;;;;;;117.65;35.92;;;0.00;99.90;;;;;;5040061;28;20044;-85
2022/01/11 08:08:34;;;;;;;132.30;41.05;;;0.10;99.90;;;;;;5051430;28;20095;-84
2022/01/11 08:11:00;;;;;;;131.55;41.17;;;0.20;99.90;;;;;;5052773;28;20041;-84
2022/01/11 08:13:26;;;;;;;84.63;31.73;;;0.10;99.90;;;;;;5051315;28;20826;-86
2022/01/11 08:15:52;;;;;;;83.75;26.58;;;0.20;99.90;;;;;;5062714;28;20064;-85
2022/01/11 08:18:18;;;;;;;123.78;40.50;;;0.20;99.90;;;;;;5065226;28;20075;-84
2022/01/11 08:20:44;;;;;;;105.97;37.72;;;0.20;99.90;;;;;;5079552;28;20068;-84
2022/01/11 08:23:14;;;;;;;114.00;41.38;;;0.20;99.90;;;;;;5076305;28;20052;-84
2022/01/11 08:25:40;;;;;;;118.18;40.85;;;0.30;99.90;;;;;;5073475;28;20033;-84
2022/01/11 08:28:06;;;;;;;120.97;37.20;;;0.20;99.90;;;;;;5070765;28;20427;-85
2022/01/11 08:30:34;;;;;;;102.47;32.88;;;0.20;99.90;;;;;;5061463;28;20064;-83
2022/01/11 08:33:01;;;;;;;107.50;40.25;;;0.30;99.90;;;;;;5058752;28;20052;-86
2022/01/11 08:35:30;;;;;;;105.65;36.72;;;0.30;99.90;;;;;;5067235;28;20070;-84
2022/01/11 08:37:56;;;;;;;105.32;33.65;;;0.30;99.90;;;;;;5067971;28;20079;-86
2022/01/11 08:40:22;;;;;;;79.45;26.58;;;0.30;99.90;;;;;;5066323;28;20096;-85
2022/01/11 08:42:48;;;;;;;113.30;35.88;;;0.40;99.90;;;;;;5072334;28;20036;-85
2022/01/11 08:45:14;;;;;;;101.47;38.95;;;0.30;99.90;;;;;;5107555;28;20117;-84
2022/01/11 08:47:46;;;;;;;101.93;32.33;;;0.30;99.90;;;;;;5073836;28;20457;-84
2022/01/11 08:50:12;;;;;;;89.93;32.72;;;0.40;99.90;;;;;;5065823;28;20052;-84
2022/01/11 08:52:39;;;;;;;111.25;37.38;;;0.40;99.90;;;;;;5064621;28;20041;-84
2022/01/11 08:55:07;;;;;;;85.53;31.17;;;0.30;99.90;;;;;;5059593;28;20084;-85
2022/01/11 08:57:34;;;;;;;100.20;34.92;;;0.40;99.90;;;;;;5050760;28;20051;-85
2022/01/11 09:00:02;;;;;;;100.80;35.65;;;0.30;99.90;;;;;;5061744;28;20102;-84
2022/01/11 09:02:28;;;;;;;94.50;33.15;;;0.30;99.90;;;;;;5065984;28;20093;-85
2022/01/11 09:04:54;;;;;;;95.05;33.20;;;0.40;99.90;;;;;;5065265;28;20044;-84
2022/01/11 09:07:21;;;;;;;109.32;36.42;;;1.40;99.90;;;;;;5062381;28;20117;-84
2022/01/11 09:09:47;;;;;;;73.93;26.15;;;0.40;99.90;;;;;;5052231;28;20051;-84
2022/01/11 09:12:15;;;;;;;76.90;27.73;;;0.40;99.90;;;;;;5053214;28;20044;-84
2022/01/11 09:14:41;;;;;;;82.13;29.80;;;0.40;99.90;;;;;;5052977;28;20503;-84
2022/01/11 09:17:08;;;;;;;75.30;28.17;;;0.40;99.90;;;;;;5043898;28;20075;-85
2022/01/11 09:19:34;;;;;;;76.13;27.70;;;0.40;99.90;;;;;;5042609;28;20049;-85
2022/01/11 09:22:00;;;;;;;99.25;31.67;;;0.40;99.90;;;;;;5044068;28;20440;-84
2022/01/11 09:24:29;;;;;;;80.90;29.05;;;0.40;99.90;;;;;;5044327;28;20859;-85
2022/01/11 09:26:57;;;;;;;66.15;22.42;;;0.40;99.90;;;;;;5044385;28;20045;-85
2022/01/11 09:29:23;;;;;;;65.50;24.65;;;0.50;99.90;;;;;;5049193;28;20088;-85
2022/01/11 09:31:49;;;;;;;70.90;24.23;;;0.40;99.90;;;;;;5036120;28;20072;-85
2022/01/11 09:34:14;;;;;;;65.95;24.15;;;0.40;99.90;;;;;;5053380;28;20100;-85
2022/01/11 09:36:40;;;;;;;78.85;26.08;;;0.40;99.90;;;;;;5052447;28;20147;-85
2022/01/11 09:39:06;;;;;;;60.85;24.58;;;0.40;99.90;;;;;;5052687;28;20418;-85
2022/01/11 09:41:33;;;;;;;60.88;20.40;;;0.30;99.90;;;;;;5053295;28;20045;-83
2022/01/11 09:43:59;;;;;;;62.00;21.98;;;0.40;99.90;;;;;;5050797;28;20384;-85
2022/01/11 09:46:25;;;;;;;66.88;25.60;;;0.40;99.90;;;;;;5052378;28;20045;-85
2022/01/11 09:48:51;;;;;;;55.45;22.48;;;0.30;99.90;;;;;;5048862;28;20045;-85
2022/01/11 09:51:16;;;;;;;60.90;24.25;;;0.30;99.90;;;;;;5049858;28;20072;-84
2022/01/11 09:53:42;;;;;;;63.67;25.05;;;0.30;99.90;;;;;;5058687;28;20051;-84
2022/01/11 09:56:09;;;;;;;59.97;24.50;;;0.30;99.90;;;;;;5071117;28;20055;-84
2022/01/11 09:58:35;;;;;;;66.78;25.13;;;0.30;99.90;;;;;;5070145;28;20463;-84
2022/01/11 10:01:03;;;;;;;62.47;22.58;;;0.30;99.90;;;;;;5069703;28;20048;-85
2022/01/11 10:03:29;;;;;;;52.65;21.30;;;0.30;99.90;;;;;;5067912;28;20660;-85
2022/01/11 10:05:55;;;;;;;52.03;21.67;;;0.30;99.90;;;;;;5062001;28;20608;-85
2022/01/11 10:08:27;;;;;;;53.70;21.20;;;0.30;99.90;;;;;;5063416;28;20080;-85
2022/01/11 10:10:54;;;;;;;49.65;18.75;;;0.40;99.90;;;;;;5063346;28;20048;-85
2022/01/11 10:13:39;;;;;;;48.45;20.60;;;0.40;99.90;;;;;;5063126;28;20155;-84
2022/01/11 10:16:21;;;;;;;63.45;24.88;;;0.40;99.90;;;;;;5061451;28;20036;-85
2022/01/11 10:18:48;;;;;;;59.88;23.33;;;0.40;99.90;;;;;;5064392;28;20048;-85
2022/01/11 10:21:50;;;;;;;54.25;23.27;;;0.40;99.90;;;;;;5063720;28;20040;-85
2022/01/11 10:24:26;;;;;;;63.83;22.33;;;0.40;99.90;;;;;;5001141;28;20071;-85
2022/01/11 10:26:53;;;;;;;62.88;23.20;;;0.40;99.90;;;;;;5056663;28;20490;-85
2022/01/11 10:29:26;;;;;;;57.42;21.35;;;0.40;99.90;;;;;;5061500;28;20056;-85
2022/01/11 10:31:53;;;;;;;59.47;22.70;;;0.50;99.90;;;;;;5062011;28;20048;-85
2022/01/11 10:34:31;;;;;;;61.92;22.45;;;0.50;99.90;;;;;;5063332;28;20128;-85
2022/01/11 10:36:59;;;;;;;65.55;23.73;;;0.50;99.90;;;;;;5064350;28;20079;-85
2022/01/11 10:39:40;;;;;;;48.55;19.83;;;0.50;99.90;;;;;;5061308;28;20058;-85
2022/01/11 10:42:23;;;;;;;48.33;20.98;;;0.60;99.90;;;;;;5063668;28;20095;-86
2022/01/11 10:44:59;;;;;;;54.72;22.77;;;0.60;99.90;;;;;;5063319;28;20123;-85
2022/01/11 10:47:30;;;;;;;51.30;18.88;;;0.60;99.90;;;;;;5063061;28;20434;-85
2022/01/11 10:50:07;;;;;;;52.95;21.58;;;0.60;99.90;;;;;;5062302;28;20147;-83
2022/01/11 10:52:34;;;;;;;48.15;20.23;;;0.60;99.90;;;;;;5068224;28;20121;-84
2022/01/11 10:55:10;;;;;;;54.80;21.40;;;0.60;99.90;;;;;;5052417;28;20052;-84
2022/01/11 10:57:41;;;;;;;51.80;21.43;;;0.60;99.90;;;;;;5070550;28;20056;-85
2022/01/11 11:00:22;;;;;;;53.13;22.15;;;0.60;99.90;;;;;;5065522;28;20330;-84
2022/01/11 11:02:59;;;;;;;35.50;15.40;;;0.70;99.90;;;;;;5101561;28;20037;-84
2022/01/11 11:05:30;;;;;;;37.17;15.43;;;0.70;99.90;;;;;;5073444;28;20048;-82
2022/01/11 11:08:09;;;;;;;48.90;22.05;;;0.70;99.90;;;;;;5062877;28;20044;-85
2022/01/11 11:10:56;;;;;;;42.65;19.90;;;0.70;99.90;;;;;;5072826;28;20092;-85
2022/01/11 11:13:47;;;;;;;42.75;17.83;;;0.70;99.90;;;;;;5078737;28;20059;-85
2022/01/11 11:16:17;;;;;;;47.85;20.50;;;0.70;99.90;;;;;;5076936;28;20435;-85
2022/01/11 11:18:57;;;;;;;38.30;17.33;;;0.80;99.90;;;;;;5083707;28;20055;-86
2022/01/11 11:21:34;;;;;;;43.55;17.33;;;1.20;99.90;;;;;;5080772;28;20139;-85
2022/01/11 11:24:13;;;;;;;42.45;19.42;;;0.90;99.90;;;;;;5076641;28;20171;-84
2022/01/11 11:26:44;;;;;;;42.00;18.98;;;0.90;99.90;;;;;;5073888;28;20072;-84
2022/01/11 11:29:19;;;;;;;38.60;18.10;;;1.00;99.90;;;;;;5074996;28;20121;-84
2022/01/11 11:31:47;;;;;;;27.43;13.97;;;1.40;99.90;;;;;;5060982;28;20053;-86
2022/01/11 11:34:12;;;;;;;39.63;16.90;;;1.20;99.90;;;;;;5057990;28;20045;-83
2022/01/11 11:36:41;;;;;;;42.90;19.20;;;2.00;99.90;;;;;;5052168;28;20534;-85
2022/01/11 11:39:25;;;;;;;46.65;18.88;;;1.40;99.90;;;;;;5052645;28;20060;-84
2022/01/11 11:41:55;;;;;;;41.05;18.85;;;1.50;99.90;;;;;;5053754;28;20103;-84
2022/01/11 11:44:24;;;;;;;28.30;15.38;;;1.60;99.90;;;;;;5066133;28;20491;-84
2022/01/11 11:46:59;;;;;;;39.78;19.02;;;1.70;99.90;;;;;;5075163;28;20615;-83
2022/01/11 11:49:53;;;;;;;34.53;18.00;;;1.90;99.90;;;;;;5039978;28;20039;-84
2022/01/11 11:52:33;;;;;;;31.33;15.95;;;2.10;99.90;;;;;;5061307;28;20045;-86
2022/01/11 11:55:04;;;;;;;27.13;13.68;;;2.30;99.90;;;;;;5054070;28;20054;-85
2022/01/11 11:57:33;;;;;;;33.65;15.88;;;2.40;99.90;;;;;;5062679;28;20457;-85
2022/01/11 12:00:07;;;;;;;35.22;15.82;;;2.40;99.90;;;;;;5064129;28;20052;-86
2022/01/11 12:02:43;;;;;;;32.60;14.95;;;2.40;99.90;;;;;;5062618;28;20075;-85
2022/01/11 12:05:14;;;;;;;29.77;15.15;;;2.60;99.90;;;;;;5073501;28;20025;-84
2022/01/11 12:07:49;;;;;;;27.38;14.88;;;2.10;99.90;;;;;;5073192;28;20060;-83
2022/01/11 12:10:29;;;;;;;30.10;15.73;;;2.60;99.90;;;;;;5075863;28;20041;-84
2022/01/11 12:12:55;;;;;;;29.38;15.52;;;2.80;99.90;;;;;;5074975;28;20075;-83
2022/01/11 12:15:32;;;;;;;25.75;13.23;;;3.50;99.90;;;;;;5082080;28;20044;-83
2022/01/11 12:18:00;;;;;;;23.38;13.80;;;3.10;99.90;;;;;;5066777;28;20044;-84
2022/01/11 12:20:45;;;;;;;22.75;12.00;;;3.30;99.90;;;;;;5081980;28;20036;-84
2022/01/11 12:23:31;;;;;;;25.98;13.60;;;3.40;99.90;;;;;;5055357;28;20060;-86
2022/01/11 12:26:16;;;;;;;22.27;11.82;;;4.20;99.90;;;;;;5060256;28;20126;-85
2022/01/11 12:28:44;;;;;;;26.55;13.73;;;2.80;99.90;;;;;;5036816;28;20060;-84
2022/01/11 12:31:25;;;;;;;23.30;13.00;;;3.60;99.90;;;;;;5055551;28;20060;-84
2022/01/11 12:33:51;;;;;;;24.20;12.63;;;4.30;99.90;;;;;;5050067;28;20080;-83
2022/01/11 12:36:17;;;;;;;24.30;12.57;;;3.70;99.90;;;;;;5050809;28;20084;-85